Airfield :
LOGIN :

Register | Disclaimer

   EN    FR    IT 

 










Legend :    VFR   Marginal VFR   IFR   Intensive IFR   Very Intensive IFR
Visi :
Ceiling :
>= 8 km
>= 3000ft
5 to 8 km
1000 to 3000 ft
1500m to 5 km
500 to 1000 ft
800 to 1500m
200 to 500 ft
< 800m
< 200 ft
Symbols :   Thunderstorms  Fog  Heavy snow  Heavy precipitations  Wind > 20 kt
SIGMETs :     Misc.  Thunderstorms  Icing  Turbulence  Mountain Waves  Volcanic Ashes







- Airport Elevation : 776 ft
- IATA code : RMS


ETAR - Ramstein Air Base

CURRENT METAR :
  • 240656Z 00000KT 9999 FEW030 BKN140 12/08 A2960 RMK AO2A SLP024 T01190080 $

EXPIRED METARs :
  • 240556Z 00000KT 9999 FEW030 BKN140 10/08 A2958 RMK AO2A SLP018 T00970075 10099 20045 52018 $
  • 240456Z AUTO 00000KT 9999 CLR 08/07 A2957 RMK AO2 SLP014 T00780067 $

TAF TAF ETAR
Valid from the 24 at 02:00 until the 25 at 08:00 UTC


240203Z 2402/2508 VRB06KT 9999 FEW100 QNH2950INS
BECMG 2407/2408 25009KT 9999 FEW040 BKN100 QNH2957INS
BECMG 2412/2413 22012KT 8000 -SHRA SCT020 BKN040 QNH2955INS
TEMPO 2414/2419 23015G30KT 6000 -TSRA BKN020CB
BECMG 2423/2424 19012KT 8000 -SHRA SCT035 BKN045 QNH2953INS TX23/2414Z TN05/2403Z
No reported NOTAMs for that airfield.



MET'MAP, your aeronautical weather chart ! - Copyright ORBIFLY December 2007 - Disclaimer

ORBIFLY MET'MAP TEAM :

Programming & Development : Alexandra Zaïnal
Concept & Development : Baudouin d'Aumeries
Co-Development & Prog : Marc-Olivier Méhu
Technical & hardware support : Manuel Goepfert

Contact : metmap@orbifly.com




SOURCES & CREDITS :

   NOAA